Time;durP1;ratioP1;P1;durP2;ratioP2;P2;SDS_P1;SDS_P2;PMS_P1;PMS_P2;Temp;Humidity;BMP_temperature;BMP_pressure;BME280_temperature;BME280_humidity;BME280_pressure;Samples;Min_cycle;Max_cycle;Signal;HPM_P1;HPM_P2
2022/03/30 00:00:16;;;;;;;17.67;13.10;;;;;;;13.99;52.65;98627.06;1088226;54;20019;-80
2022/03/30 00:01:20;;;;;;;16.80;12.77;;;;;;;14.07;52.07;98631.44;1088197;54;20572;-81
2022/03/30 00:02:25;;;;;;;16.40;13.25;;;;;;;14.10;51.98;98639.09;1088181;54;20094;-81
2022/03/30 00:04:32;;;;;;;16.85;13.88;;;;;;;13.99;52.33;98631.59;1087449;54;20026;-80
2022/03/30 00:05:34;;;;;;;18.80;14.48;;;;;;;13.96;52.53;98638.22;1087582;54;20045;-80
2022/03/30 00:06:39;;;;;;;19.50;15.07;;;;;;;13.90;52.97;98636.34;1086901;54;20027;-77
2022/03/30 00:07:41;;;;;;;21.33;16.05;;;;;;;13.76;53.37;98640.00;1086671;47;20555;-78
2022/03/30 00:08:47;;;;;;;24.15;17.35;;;;;;;13.62;54.03;98636.41;1085993;54;20038;-78
2022/03/30 00:09:53;;;;;;;26.10;17.88;;;;;;;13.54;54.35;98640.94;1085759;54;20066;-78
2022/03/30 00:10:55;;;;;;;25.63;17.98;;;;;;;13.45;54.14;98642.13;1085822;54;20034;-77
2022/03/30 00:11:59;;;;;;;21.80;18.00;;;;;;;13.41;54.70;98635.50;1086770;47;20548;-78
2022/03/30 00:13:01;;;;;;;25.77;18.00;;;;;;;13.35;54.67;98630.88;1086143;47;20046;-79
2022/03/30 00:14:07;;;;;;;22.30;16.92;;;;;;;13.48;54.52;98636.34;1085914;47;20042;-78
2022/03/30 00:15:09;;;;;;;25.10;16.30;;;;;;;13.47;54.40;98633.84;1085961;54;20046;-78
2022/03/30 00:16:14;;;;;;;25.60;17.77;;;;;;;13.45;54.21;98636.75;1086828;47;20057;-77
2022/03/30 00:17:15;;;;;;;21.23;16.55;;;;;;;13.39;54.88;98632.19;1086137;47;20045;-77
2022/03/30 00:18:20;;;;;;;23.50;18.15;;;;;;;13.30;55.07;98636.00;1085964;54;20035;-78
2022/03/30 00:19:24;;;;;;;21.05;16.95;;;;;;;13.27;55.26;98639.94;1085965;54;20030;-79
2022/03/30 00:20:26;;;;;;;21.70;17.13;;;;;;;13.28;55.27;98646.94;1085892;54;20650;-79
2022/03/30 00:21:30;;;;;;;24.20;16.25;;;;;;;13.36;54.82;98640.59;1085762;54;20540;-77
2022/03/30 00:22:32;;;;;;;22.45;16.90;;;;;;;13.37;54.79;98628.81;1085755;54;20057;-78
2022/03/30 00:23:36;;;;;;;21.35;15.13;;;;;;;13.49;54.68;98640.72;1086787;39;20413;-78
2022/03/30 00:24:38;;;;;;;20.42;16.38;;;;;;;13.37;54.79;98628.81;1086285;54;20086;-78
2022/03/30 00:25:45;;;;;;;21.27;16.65;;;;;;;13.35;55.37;98630.88;1086825;39;20466;-76
2022/03/30 00:26:47;;;;;;;20.80;16.02;;;;;;;13.31;55.11;98635.00;1086392;54;20038;-79
2022/03/30 00:27:51;;;;;;;24.20;17.23;;;;;;;13.26;55.38;98639.09;1086434;54;20042;-78
2022/03/30 00:28:53;;;;;;;21.55;16.48;;;;;;;13.32;55.38;98637.47;1088678;39;20406;-79
2022/03/30 00:29:57;;;;;;;20.58;16.40;;;;;;;13.36;55.29;98633.38;1086088;54;20042;-78
2022/03/30 00:30:59;;;;;;;21.23;16.95;;;;;;;13.35;55.08;98631.72;1086369;54;20042;-79
2022/03/30 00:32:04;;;;;;;23.70;16.13;;;;;;;13.36;55.10;98632.53;1086452;54;20034;-78
2022/03/30 00:33:05;;;;;;;20.65;16.30;;;;;;;13.33;54.95;98627.53;1086360;54;20042;-78
2022/03/30 00:34:11;;;;;;;20.65;16.15;;;;;;;13.39;54.84;98632.19;1086571;46;20042;-79
2022/03/30 00:35:13;;;;;;;22.30;17.00;;;;;;;13.29;55.26;98624.44;1086264;54;20038;-79
2022/03/30 00:36:17;;;;;;;25.63;17.75;;;;;;;13.14;55.57;98629.91;1086517;54;20030;-78
2022/03/30 00:37:19;;;;;;;29.65;18.83;;;;;;;13.04;56.28;98624.91;1086197;54;20045;-78
2022/03/30 00:38:23;;;;;;;24.45;18.73;;;;;;;13.04;56.23;98619.53;1086413;54;20033;-79
2022/03/30 00:39:25;;;;;;;23.55;18.80;;;;;;;13.00;56.29;98617.44;1086753;54;20045;-78
2022/03/30 00:40:30;;;;;;;22.02;17.45;;;;;;;13.05;55.86;98621.19;1088259;46;20094;-79
2022/03/30 00:41:37;;;;;;;24.63;18.15;;;;;;;13.10;55.99;98620.63;1087179;54;20061;-79
2022/03/30 00:42:38;;;;;;;22.98;17.42;;;;;;;13.20;55.65;98615.72;1086877;54;20015;-79
2022/03/30 00:43:43;;;;;;;25.27;17.73;;;;;;;13.19;55.37;98621.28;1087107;54;20081;-79
2022/03/30 00:44:46;;;;;;;23.20;16.50;;;;;;;13.16;55.29;98622.50;1087192;54;20053;-79
2022/03/30 00:45:50;;;;;;;20.33;16.98;;;;;;;13.20;55.32;98618.41;1089735;39;20437;-79
2022/03/30 00:46:52;;;;;;;21.05;16.98;;;;;;;13.19;55.34;98615.91;1086942;54;20083;-79
2022/03/30 00:47:57;;;;;;;19.58;15.32;;;;;;;13.32;55.05;98620.56;1086937;54;20571;-79
2022/03/30 00:48:58;;;;;;;18.70;14.50;;;;;;;13.46;54.66;98618.81;1087188;54;20026;-79
2022/03/30 00:50:03;;;;;;;20.77;13.98;;;;;;;13.55;54.23;98615.75;1088111;39;20503;-79
2022/03/30 00:51:08;;;;;;;18.80;13.85;;;;;;;13.59;53.98;98609.97;1086821;54;20042;-79
2022/03/30 00:52:10;;;;;;;18.27;13.45;;;;;;;13.65;53.78;98609.97;1086695;54;20070;-80
2022/03/30 00:53:14;;;;;;;17.75;13.70;;;;;;;13.65;53.70;98609.16;1086623;54;20044;-80
2022/03/30 00:54:16;;;;;;;16.55;13.10;;;;;;;13.69;53.56;98602.38;1086480;54;20042;-80
2022/03/30 00:55:21;;;;;;;14.05;12.00;;;;;;;13.73;53.29;98611.69;1086832;54;20042;-78
2022/03/30 00:56:23;;;;;;;15.60;12.98;;;;;;;13.76;53.28;98611.28;1086968;54;20042;-80
2022/03/30 00:57:32;;;;;;;16.13;12.68;;;;;;;13.77;53.26;98607.56;1087769;54;20034;-82
2022/03/30 00:58:38;;;;;;;16.48;12.82;;;;;;;13.68;53.43;98603.41;1087197;54;20043;-79
2022/03/30 00:59:41;;;;;;;19.30;15.80;;;;;;;13.55;53.98;98613.06;1086819;54;20050;-80
2022/03/30 01:00:46;;;;;;;21.60;15.95;;;;;;;13.46;54.28;98616.13;1086916;54;20073;-79
2022/03/30 01:01:47;;;;;;;23.30;17.58;;;;;;;13.29;54.63;98610.19;1086954;54;20042;-79
2022/03/30 01:02:53;;;;;;;25.08;19.15;;;;;;;13.01;55.41;98608.38;1088639;39;20409;-79
2022/03/30 01:03:55;;;;;;;28.88;19.33;;;;;;;13.01;55.33;98609.19;1086448;54;20043;-80
2022/03/30 01:04:59;;;;;;;27.45;19.85;;;;;;;13.01;55.25;98619.91;1087001;54;20034;-78
2022/03/30 01:06:03;;;;;;;23.15;17.95;;;;;;;12.93;55.62;98612.88;1087040;54;20038;-77
2022/03/30 01:07:05;;;;;;;24.88;17.75;;;;;;;12.94;55.50;98609.13;1087180;54;20038;-80
2022/03/30 01:08:10;;;;;;;23.55;18.33;;;;;;;12.93;55.60;98612.88;1086976;54;20038;-80
2022/03/30 01:09:12;;;;;;;24.30;18.35;;;;;;;12.91;55.50;98608.69;1086955;54;20041;-78
2022/03/30 01:10:20;;;;;;;22.27;17.98;;;;;;;12.96;55.49;98617.00;1088327;39;20480;-80
2022/03/30 01:11:22;;;;;;;21.88;17.65;;;;;;;12.91;55.76;98609.53;1087298;54;20057;-79
2022/03/30 01:12:31;;;;;;;24.50;18.60;;;;;;;12.80;56.25;98612.75;1086999;54;20042;-81
2022/03/30 01:13:33;;;;;;;26.92;18.50;;;;;;;12.76;56.24;98608.78;1087112;54;20042;-79
2022/03/30 01:14:38;;;;;;;24.88;18.38;;;;;;;12.73;56.29;98606.53;1087145;54;20038;-79
2022/03/30 01:15:39;;;;;;;27.70;18.25;;;;;;;12.76;56.42;98604.28;1086995;46;20034;-79
2022/03/30 01:16:43;;;;;;;27.83;18.95;;;;;;;12.68;56.79;98599.06;1087118;54;20026;-80
2022/03/30 01:17:45;;;;;;;23.35;18.25;;;;;;;12.69;56.62;98599.88;1087416;54;20043;-79
2022/03/30 01:18:49;;;;;;;25.13;18.30;;;;;;;12.71;56.34;98603.19;1087946;46;20027;-80
2022/03/30 01:19:52;;;;;;;25.20;18.75;;;;;;;12.70;56.56;98598.84;1087833;39;20244;-78
2022/03/30 01:20:59;;;;;;;23.83;18.02;;;;;;;12.68;56.72;98599.06;1087568;54;20049;-79
2022/03/30 01:22:01;;;;;;;24.42;18.80;;;;;;;12.63;56.45;98591.59;1087165;54;20041;-80
2022/03/30 01:23:05;;;;;;;26.00;17.48;;;;;;;12.69;56.40;98598.03;1087162;54;20107;-80
2022/03/30 01:24:08;;;;;;;24.17;17.25;;;;;;;12.74;56.19;98586.72;1087185;54;20034;-79
2022/03/30 01:25:12;;;;;;;23.00;16.17;;;;;;;12.73;56.49;98593.09;1086973;54;20084;-80
2022/03/30 01:26:14;;;;;;;20.60;16.90;;;;;;;12.72;56.04;98586.91;1087247;54;20066;-79
2022/03/30 01:27:18;;;;;;;21.67;17.35;;;;;;;12.79;56.03;98589.63;1087115;54;20102;-79
2022/03/30 01:28:28;;;;;;;22.17;17.40;;;;;;;12.82;55.70;98583.06;1087662;46;20912;-78
2022/03/30 01:32:26;;;;;;;21.98;17.60;;;;;;;12.74;55.54;98579.50;1086636;54;20872;-80
2022/03/30 01:33:32;;;;;;;22.17;17.45;;;;;;;12.64;55.63;98582.53;1087335;39;20465;-79
2022/03/30 01:34:34;;;;;;;19.75;16.30;;;;;;;12.66;55.51;98582.31;1086552;54;20034;-79
2022/03/30 01:35:38;;;;;;;19.65;16.10;;;;;;;12.67;55.51;98577.78;1086441;54;20042;-80
2022/03/30 01:36:42;;;;;;;22.50;17.35;;;;;;;12.55;55.86;98575.66;1086929;54;20030;-80
2022/03/30 01:37:47;;;;;;;23.65;17.67;;;;;;;12.49;56.23;98573.72;1087754;54;20039;-80
2022/03/30 01:38:49;;;;;;;23.45;18.00;;;;;;;12.40;56.36;98575.72;1087793;54;20046;-80
2022/03/30 01:39:53;;;;;;;24.05;18.02;;;;;;;12.49;55.94;98571.03;1087809;54;20034;-81
2022/03/30 01:40:57;;;;;;;24.05;17.52;;;;;;;12.46;56.24;98569.59;1087808;54;20038;-80
2022/03/30 01:41:59;;;;;;;26.73;18.63;;;;;;;12.48;55.92;98566.69;1089492;39;20551;-80
2022/03/30 01:43:03;;;;;;;24.33;17.77;;;;;;;12.44;56.33;98568.13;1087212;54;20034;-78
2022/03/30 01:44:06;;;;;;;24.73;18.48;;;;;;;12.38;56.16;98566.19;1087535;54;20038;-81
2022/03/30 01:45:15;;;;;;;27.70;18.23;;;;;;;12.49;56.09;98563.00;1087769;54;20018;-80
2022/03/30 01:46:16;;;;;;;21.65;17.70;;;;;;;12.51;55.71;98566.31;1087971;54;20021;-80
2022/03/30 01:47:23;;;;;;;22.77;17.88;;;;;;;12.39;56.46;98563.34;1087952;54;20035;-78
2022/03/30 01:48:24;;;;;;;24.75;19.15;;;;;;;12.36;56.73;98563.72;1087919;54;20634;-79
2022/03/30 01:49:29;;;;;;;22.50;17.95;;;;;;;12.39;56.42;98563.34;1089950;46;20026;-79
2022/03/30 01:50:36;;;;;;;27.85;19.48;;;;;;;12.10;57.64;98564.28;1087784;54;20065;-79
2022/03/30 01:51:41;;;;;;;23.90;18.95;;;;;;;12.08;57.65;98571.72;1087986;54;20063;-80
2022/03/30 01:52:46;;;;;;;25.23;19.35;;;;;;;12.21;57.50;98569.16;1087773;54;20011;-79
2022/03/30 01:53:50;;;;;;;25.73;18.30;;;;;;;12.21;57.29;98571.00;1087616;54;20034;-79
2022/03/30 01:54:51;;;;;;;28.67;19.60;;;;;;;12.12;57.90;98562.25;1087872;46;20038;-79
2022/03/30 01:55:55;;;;;;;24.17;19.70;;;;;;;12.06;57.84;98569.22;1087166;54;20038;-78
2022/03/30 01:56:57;;;;;;;25.15;19.55;;;;;;;12.04;58.04;98565.91;1086662;54;20077;-78
2022/03/30 01:58:01;;;;;;;24.27;18.58;;;;;;;12.04;58.23;98570.41;1086416;54;20027;-79
2022/03/30 01:59:03;;;;;;;24.80;19.55;;;;;;;12.11;58.12;98568.63;1086567;54;20134;-80
2022/03/30 02:00:10;;;;;;;27.95;19.02;;;;;;;12.23;57.93;98568.97;1086188;54;20034;-79
2022/03/30 02:01:13;;;;;;;26.75;18.98;;;;;;;12.04;58.27;98565.06;1086258;54;20034;-79
2022/03/30 02:02:18;;;;;;;23.40;18.85;;;;;;;12.14;58.09;98566.41;1086354;54;20030;-78
2022/03/30 02:03:27;;;;;;;24.23;17.45;;;;;;;12.17;58.09;98567.88;1086089;54;20047;-79
2022/03/30 02:04:32;;;;;;;24.70;19.15;;;;;;;12.30;57.58;98562.63;1085623;54;20086;-78
2022/03/30 02:05:34;;;;;;;21.13;16.73;;;;;;;12.36;57.44;98558.38;1090388;39;20509;-79
2022/03/30 02:06:39;;;;;;;20.55;16.35;;;;;;;12.51;57.01;98566.31;1085736;54;20618;-77
2022/03/30 02:07:41;;;;;;;18.77;15.45;;;;;;;12.42;56.96;98567.47;1086074;54;20042;-79
2022/03/30 02:08:48;;;;;;;23.67;17.55;;;;;;;12.45;57.05;98556.38;1086946;46;20086;-78
2022/03/30 02:09:49;;;;;;;22.00;16.00;;;;;;;12.53;56.96;98558.09;1086175;54;20045;-79
2022/03/30 02:10:54;;;;;;;24.27;17.17;;;;;;;12.50;56.74;98561.97;1086018;54;20027;-78
2022/03/30 02:11:55;;;;;;;22.70;16.92;;;;;;;12.41;56.96;98555.09;1086521;54;20065;-78
2022/03/30 02:13:00;;;;;;;21.98;17.40;;;;;;;12.38;56.92;98560.84;1086582;54;20031;-79
2022/03/30 02:14:02;;;;;;;23.88;17.30;;;;;;;12.39;56.95;98558.00;1086577;54;20126;-79
2022/03/30 02:15:10;;;;;;;20.45;17.05;;;;;;;12.38;57.24;98560.84;1086582;54;20039;-77
2022/03/30 02:16:13;;;;;;;24.15;17.05;;;;;;;12.35;57.00;98556.69;1086522;54;20049;-79
2022/03/30 02:17:18;;;;;;;20.50;15.40;;;;;;;12.52;56.99;98554.59;1088047;54;20595;-80
2022/03/30 02:18:20;;;;;;;20.70;15.40;;;;;;;12.64;56.19;98552.19;1088024;54;20030;-80
2022/03/30 02:19:24;;;;;;;18.08;14.20;;;;;;;12.72;55.87;98552.03;1087912;54;20042;-79
2022/03/30 02:20:29;;;;;;;19.17;13.60;;;;;;;12.76;56.06;98552.47;1087994;54;20054;-79
2022/03/30 02:21:31;;;;;;;18.60;14.77;;;;;;;12.82;55.60;98553.56;1087909;54;20034;-79
2022/03/30 02:22:35;;;;;;;17.80;13.77;;;;;;;12.79;55.77;98546.75;1088108;54;20111;-79
2022/03/30 02:23:37;;;;;;;19.58;14.82;;;;;;;12.83;55.58;98548.00;1087757;54;20066;-81
2022/03/30 02:24:43;;;;;;;19.92;15.32;;;;;;;12.83;55.55;98544.50;1087968;54;20043;-80
2022/03/30 02:25:45;;;;;;;18.02;14.15;;;;;;;12.83;55.53;98536.44;1087814;54;20042;-80
2022/03/30 02:26:50;;;;;;;18.70;15.00;;;;;;;12.84;55.34;98544.31;1087922;54;20046;-80
2022/03/30 02:27:52;;;;;;;21.08;15.93;;;;;;;12.79;55.57;98541.38;1087915;54;20019;-82
2022/03/30 02:28:56;;;;;;;20.73;15.98;;;;;;;12.80;55.42;98548.41;1088048;54;20107;-81
2022/03/30 02:29:58;;;;;;;18.52;15.32;;;;;;;12.78;55.51;98545.06;1087891;54;20031;-79
2022/03/30 02:31:02;;;;;;;20.30;15.18;;;;;;;12.82;55.44;98534.78;1088909;46;20154;-80
2022/03/30 02:32:05;;;;;;;18.73;15.00;;;;;;;12.87;55.39;98543.91;1088047;54;20042;-80
2022/03/30 02:33:09;;;;;;;16.95;14.30;;;;;;;12.87;55.04;98538.53;1087858;54;20034;-79
2022/03/30 02:34:11;;;;;;;16.95;14.15;;;;;;;12.90;55.08;98534.63;1088050;39;20422;-79
2022/03/30 02:35:17;;;;;;;19.13;15.00;;;;;;;12.88;54.91;98540.19;1090510;46;20043;-80
2022/03/30 02:36:19;;;;;;;18.25;14.23;;;;;;;12.89;54.71;98536.50;1087902;54;20053;-79
2022/03/30 02:37:23;;;;;;;17.85;13.98;;;;;;;12.94;54.69;98535.91;1087809;54;20050;-78
2022/03/30 02:38:25;;;;;;;18.08;14.10;;;;;;;12.92;55.04;98530.75;1088186;46;20050;-81
2022/03/30 02:39:33;;;;;;;20.55;14.63;;;;;;;12.95;54.96;98526.84;1087755;54;20061;-81
2022/03/30 02:40:37;;;;;;;18.80;14.23;;;;;;;12.98;54.77;98522.91;1087826;54;20774;-79
2022/03/30 02:41:41;;;;;;;16.85;12.85;;;;;;;13.03;54.75;98521.31;1087719;54;20057;-80
2022/03/30 02:42:46;;;;;;;16.48;13.05;;;;;;;13.04;54.55;98516.75;1087342;54;20041;-79
2022/03/30 02:43:54;;;;;;;17.90;13.73;;;;;;;12.92;54.76;98517.34;1086063;47;20043;-78
2022/03/30 02:44:58;;;;;;;19.55;13.77;;;;;;;12.97;54.87;98521.25;1086069;54;20049;-77
2022/03/30 02:46:00;;;;;;;18.50;14.52;;;;;;;12.91;55.12;98521.03;1086219;54;20050;-79
2022/03/30 02:47:05;;;;;;;20.08;14.20;;;;;;;12.91;54.74;98514.84;1086098;54;20087;-78
2022/03/30 02:48:19;;;;;;;18.98;14.18;;;;;;;12.88;54.98;98518.75;1085923;54;20038;-80
2022/03/30 02:49:23;;;;;;;22.00;16.23;;;;;;;12.87;55.05;98511.72;1086447;54;20030;-78
2022/03/30 02:50:25;;;;;;;19.77;14.55;;;;;;;12.86;55.06;98520.78;1086938;46;20572;-79
2022/03/30 02:51:30;;;;;;;21.63;14.43;;;;;;;12.92;54.87;98522.69;1086522;54;20058;-79
2022/03/30 02:52:31;;;;;;;17.17;13.50;;;;;;;12.94;54.93;98523.31;1086599;54;20046;-78
2022/03/30 02:53:36;;;;;;;16.40;13.77;;;;;;;13.00;55.02;98515.50;1086459;54;20030;-79
2022/03/30 02:54:41;;;;;;;19.65;13.43;;;;;;;13.01;54.77;98512.63;1086676;46;20057;-79
2022/03/30 02:55:46;;;;;;;15.93;12.98;;;;;;;13.02;54.76;98513.47;1086588;54;20600;-78
2022/03/30 02:56:50;;;;;;;17.45;13.13;;;;;;;13.05;54.64;98516.56;1086591;54;20057;-78
2022/03/30 02:57:52;;;;;;;18.38;13.88;;;;;;;12.99;54.70;98508.50;1086345;54;20039;-79
2022/03/30 02:58:56;;;;;;;19.17;13.32;;;;;;;13.02;54.70;98503.56;1086682;54;20567;-79
2022/03/30 02:59:58;;;;;;;15.77;11.77;;;;;;;13.07;54.81;98508.31;1088125;46;20038;-79
2022/03/30 03:01:02;;;;;;;16.25;11.95;;;;;;;13.10;54.82;98507.94;1087148;54;20035;-80
2022/03/30 03:02:08;;;;;;;17.67;13.57;;;;;;;13.09;54.61;98508.97;1087215;54;20034;-79
2022/03/30 03:03:10;;;;;;;16.27;13.07;;;;;;;13.11;54.49;98496.19;1087168;54;20050;-79
2022/03/30 03:04:14;;;;;;;19.73;13.23;;;;;;;13.09;54.51;98500.91;1087392;47;20034;-80
2022/03/30 03:05:17;;;;;;;17.35;13.32;;;;;;;13.11;54.35;98496.19;1086797;54;20570;-79
2022/03/30 03:06:24;;;;;;;16.90;12.93;;;;;;;13.09;54.61;98498.22;1087242;54;20049;-79
2022/03/30 03:07:25;;;;;;;15.25;12.25;;;;;;;13.14;54.59;98501.13;1087309;54;20094;-80
2022/03/30 03:08:30;;;;;;;17.65;13.25;;;;;;;13.15;54.66;98494.75;1087319;54;20042;-78
2022/03/30 03:09:32;;;;;;;16.38;12.38;;;;;;;13.19;54.42;98490.63;1087661;54;20038;-82
2022/03/30 03:10:39;;;;;;;15.50;12.05;;;;;;;13.22;54.27;98495.63;1089833;39;20519;-82
2022/03/30 03:11:46;;;;;;;15.60;11.48;;;;;;;13.23;53.90;98478.47;1087637;54;20066;-81
2022/03/30 03:12:47;;;;;;;15.75;12.50;;;;;;;13.21;54.16;98483.22;1087723;54;20038;-79
2022/03/30 03:13:52;;;;;;;16.17;12.57;;;;;;;13.26;54.02;98482.63;1088353;47;20651;-82
2022/03/30 03:14:54;;;;;;;15.70;12.27;;;;;;;13.23;54.19;98478.47;1087745;54;20050;-80
2022/03/30 03:15:58;;;;;;;16.38;12.40;;;;;;;13.29;53.89;98479.53;1087781;54;20037;-79
2022/03/30 03:17:02;;;;;;;16.10;12.27;;;;;;;13.27;53.98;98484.28;1087700;54;20584;-80
2022/03/30 03:18:08;;;;;;;15.05;12.20;;;;;;;13.31;53.65;98484.72;1087778;54;20038;-79
2022/03/30 03:19:12;;;;;;;16.38;11.82;;;;;;;13.32;53.86;98478.31;1088061;54;20065;-79
2022/03/30 03:20:15;;;;;;;15.43;12.32;;;;;;;13.33;53.67;98479.94;1087877;54;20050;-79
2022/03/30 03:21:19;;;;;;;15.35;11.52;;;;;;;13.38;53.73;98474.81;1087528;54;20039;-81
2022/03/30 03:22:22;;;;;;;13.93;11.40;;;;;;;13.38;53.56;98477.50;1087907;54;20021;-79
2022/03/30 03:23:26;;;;;;;17.65;12.45;;;;;;;13.38;53.70;98478.31;1087734;54;20034;-80
2022/03/30 03:24:28;;;;;;;14.07;11.25;;;;;;;13.41;53.48;98479.81;1087517;54;20065;-80
2022/03/30 03:25:36;;;;;;;13.48;10.98;;;;;;;13.45;53.24;98481.06;1087724;54;20042;-80
2022/03/30 03:26:41;;;;;;;14.60;11.68;;;;;;;13.46;53.34;98474.66;1087629;54;20043;-81
2022/03/30 03:27:45;;;;;;;14.73;11.60;;;;;;;13.45;53.26;98474.88;1087584;54;20042;-79
2022/03/30 03:28:50;;;;;;;14.38;12.13;;;;;;;13.45;53.54;98478.38;1087794;54;20026;-79
2022/03/30 03:29:52;;;;;;;14.65;11.00;;;;;;;13.45;53.53;98474.88;1087855;54;20034;-81
2022/03/30 03:30:57;;;;;;;15.90;11.63;;;;;;;13.47;53.38;98484.38;1087790;54;20049;-81
2022/03/30 03:31:59;;;;;;;16.80;11.88;;;;;;;13.47;53.45;98472.78;1087790;54;20065;-80
2022/03/30 03:33:04;;;;;;;15.07;11.77;;;;;;;13.48;53.38;98472.59;1087780;54;20034;-80
2022/03/30 03:34:06;;;;;;;15.30;11.68;;;;;;;13.51;53.36;98474.06;1088424;47;20058;-80
2022/03/30 03:35:12;;;;;;;15.52;11.98;;;;;;;13.51;53.45;98474.88;1087791;54;20030;-79
2022/03/30 03:36:16;;;;;;;15.98;11.68;;;;;;;13.52;53.56;98464.97;1087687;54;20054;-78
2022/03/30 03:37:18;;;;;;;15.27;11.32;;;;;;;13.46;53.63;98469.28;1087888;54;20019;-80
2022/03/30 03:38:23;;;;;;;18.90;13.18;;;;;;;13.42;53.78;98468.03;1087778;54;20030;-80
2022/03/30 03:39:27;;;;;;;20.23;14.93;;;;;;;13.36;54.44;98466.13;1087701;54;20038;-79
2022/03/30 03:40:33;;;;;;;22.33;14.15;;;;;;;13.25;54.51;98457.63;1088206;47;20042;-82
2022/03/30 03:41:35;;;;;;;18.70;14.75;;;;;;;13.21;54.56;98455.53;1087572;54;20041;-80
2022/03/30 03:42:40;;;;;;;20.30;15.38;;;;;;;13.22;54.60;98454.53;1087714;54;20042;-79
2022/03/30 03:43:47;;;;;;;20.90;16.63;;;;;;;13.13;55.00;98451.19;1087711;54;20050;-81
2022/03/30 03:44:49;;;;;;;21.83;16.38;;;;;;;13.08;55.22;98449.09;1087658;54;20045;-79
2022/03/30 03:45:53;;;;;;;22.73;17.13;;;;;;;13.00;55.21;98451.94;1087737;54;20045;-80
2022/03/30 03:46:55;;;;;;;23.10;18.45;;;;;;;12.91;55.51;98448.63;1087568;54;20041;-79
2022/03/30 03:47:59;;;;;;;25.25;18.77;;;;;;;12.87;56.33;98447.34;1087785;54;20077;-81
2022/03/30 03:49:01;;;;;;;21.48;17.05;;;;;;;12.82;56.67;98449.81;1087879;54;20041;-81
2022/03/30 03:50:08;;;;;;;22.73;17.88;;;;;;;12.77;57.66;98447.72;1087721;54;20045;-80
2022/03/30 03:51:13;;;;;;;23.27;19.35;;;;;;;12.68;58.39;98440.03;1087476;54;20034;-80
2022/03/30 03:52:15;;;;;;;27.52;18.98;;;;;;;12.55;58.53;98438.94;1087688;54;20042;-79
2022/03/30 03:53:20;;;;;;;27.10;18.90;;;;;;;12.45;58.80;98438.47;1087480;54;20035;-80
2022/03/30 03:54:21;;;;;;;24.13;18.80;;;;;;;12.33;59.27;98441.69;1089033;39;20504;-80
2022/03/30 03:55:26;;;;;;;24.67;19.30;;;;;;;12.24;59.91;98442.84;1087467;54;20043;-80
2022/03/30 03:56:28;;;;;;;20.77;17.27;;;;;;;12.32;59.30;98441.88;1088943;47;20054;-82
2022/03/30 03:57:33;;;;;;;20.40;15.70;;;;;;;12.45;58.95;98438.47;1087784;54;20015;-79
2022/03/30 03:58:38;;;;;;;18.38;14.38;;;;;;;12.52;58.84;98438.50;1093079;39;20465;-80
2022/03/30 03:59:42;;;;;;;19.48;14.65;;;;;;;12.55;59.09;98433.59;1087944;54;20046;-81
2022/03/30 04:00:46;;;;;;;18.40;14.13;;;;;;;12.60;58.74;98436.50;1088223;46;20062;-80
2022/03/30 04:01:48;;;;;;;18.40;13.57;;;;;;;12.59;58.83;98434.03;1088149;54;20026;-80
2022/03/30 04:02:52;;;;;;;20.70;14.43;;;;;;;12.65;58.89;98433.22;1092814;39;20418;-81
2022/03/30 04:03:55;;;;;;;17.70;14.07;;;;;;;12.64;58.88;98443.13;1088044;54;20038;-80
2022/03/30 04:04:59;;;;;;;19.33;13.77;;;;;;;12.62;58.91;98441.66;1088043;54;20007;-81
2022/03/30 04:06:03;;;;;;;18.45;15.25;;;;;;;12.60;59.38;98430.31;1087371;54;20029;-78
2022/03/30 04:07:06;;;;;;;20.05;14.68;;;;;;;12.60;59.27;98443.72;1088059;54;20037;-80
2022/03/30 04:08:12;;;;;;;19.52;14.48;;;;;;;12.65;59.26;98438.56;1088452;39;20532;-79
2022/03/30 04:09:14;;;;;;;16.85;13.45;;;;;;;12.66;59.44;98436.75;1089784;39;20495;-80
2022/03/30 04:10:18;;;;;;;17.05;13.48;;;;;;;12.72;58.93;98443.97;1087314;54;20042;-80
2022/03/30 04:11:20;;;;;;;20.58;15.40;;;;;;;12.65;59.29;98438.56;1088582;39;20488;-79
2022/03/30 04:12:24;;;;;;;24.20;17.77;;;;;;;12.53;60.49;98430.28;1091298;39;20643;-80
2022/03/30 04:13:26;;;;;;;21.13;16.90;;;;;;;12.53;59.82;98437.47;1088237;39;20485;-80
2022/03/30 04:14:30;;;;;;;19.88;16.50;;;;;;;12.53;59.80;98441.00;1087457;54;20046;-83
2022/03/30 04:15:37;;;;;;;22.02;16.83;;;;;;;12.54;60.34;98441.81;1087392;54;20042;-81
2022/03/30 04:16:40;;;;;;;21.35;15.65;;;;;;;12.50;60.11;98437.88;1087473;54;20026;-80
2022/03/30 04:17:46;;;;;;;22.33;15.82;;;;;;;12.35;60.91;98436.13;1087336;54;20099;-80
2022/03/30 04:18:48;;;;;;;22.33;17.02;;;;;;;12.30;61.65;98444.75;1087863;39;20568;-81
2022/03/30 04:19:52;;;;;;;24.23;18.60;;;;;;;12.24;61.71;98450.91;1087354;54;20078;-79
2022/03/30 04:20:54;;;;;;;22.65;18.15;;;;;;;12.28;61.87;98446.78;1088427;39;20208;-79
2022/03/30 04:22:00;;;;;;;21.70;17.70;;;;;;;12.32;62.07;98442.72;1087404;54;20039;-78
2022/03/30 04:23:01;;;;;;;25.58;19.50;;;;;;;12.02;63.80;98450.91;1087363;54;20026;-78
2022/03/30 04:24:06;;;;;;;31.13;21.02;;;;;;;11.81;65.03;98441.03;1087271;54;20030;-78
2022/03/30 04:25:09;;;;;;;30.60;21.30;;;;;;;11.82;64.82;98444.53;1086851;54;20034;-78
2022/03/30 04:26:13;;;;;;;26.00;20.63;;;;;;;11.81;64.93;98440.19;1087313;54;20073;-80
2022/03/30 04:27:15;;;;;;;26.00;20.15;;;;;;;11.85;64.95;98447.63;1087120;54;20094;-78
2022/03/30 04:28:19;;;;;;;24.85;19.58;;;;;;;11.80;65.08;98451.94;1087223;54;20089;-78
2022/03/30 04:29:21;;;;;;;28.27;19.92;;;;;;;11.77;65.32;98449.63;1086924;54;20038;-80
2022/03/30 04:30:25;;;;;;;25.90;19.33;;;;;;;11.74;65.60;98444.66;1087210;54;20086;-79
2022/03/30 04:31:30;;;;;;;26.58;21.38;;;;;;;11.65;66.28;98444.78;1087360;54;20034;-79
2022/03/30 04:32:34;;;;;;;27.90;20.73;;;;;;;11.68;66.38;98443.56;1087654;54;20038;-79
2022/03/30 04:33:36;;;;;;;32.67;20.73;;;;;;;11.63;66.46;98440.66;1087370;46;20647;-78
2022/03/30 04:34:40;;;;;;;27.23;20.92;;;;;;;11.62;66.17;98439.81;1087602;54;20026;-78
2022/03/30 04:35:42;;;;;;;26.98;20.73;;;;;;;11.62;66.51;98445.16;1087376;54;20073;-79
2022/03/30 04:36:48;;;;;;;27.40;21.52;;;;;;;11.54;67.12;98447.97;1087384;54;20046;-79
2022/03/30 04:37:50;;;;;;;26.60;21.92;;;;;;;11.45;67.23;98449.94;1087537;54;20045;-79
2022/03/30 04:38:54;;;;;;;27.55;20.63;;;;;;;11.41;67.60;98453.19;1087722;54;20022;-79
2022/03/30 04:39:59;;;;;;;28.98;21.65;;;;;;;11.41;67.63;98456.69;1087561;54;20042;-79
2022/03/30 04:41:01;;;;;;;26.55;21.20;;;;;;;11.39;67.57;98454.19;1087449;54;20042;-79
2022/03/30 04:42:06;;;;;;;28.05;21.02;;;;;;;11.46;67.38;98450.75;1087523;54;20098;-78
2022/03/30 04:43:07;;;;;;;25.15;20.45;;;;;;;11.42;67.77;98457.53;1087483;54;20034;-78
2022/03/30 04:44:12;;;;;;;25.02;20.75;;;;;;;11.37;67.90;98452.75;1087118;54;20039;-78
2022/03/30 04:45:13;;;;;;;28.00;21.95;;;;;;;11.30;68.32;98452.66;1087417;54;20285;-80
2022/03/30 04:46:20;;;;;;;30.13;22.98;;;;;;;11.20;68.99;98457.47;1087593;54;20069;-79
2022/03/30 04:47:24;;;;;;;28.00;21.13;;;;;;;11.21;69.03;98453.78;1088344;46;20046;-79
2022/03/30 04:48:29;;;;;;;26.13;20.88;;;;;;;11.31;68.06;98459.66;1087979;46;20548;-79
2022/03/30 04:49:33;;;;;;;30.60;21.20;;;;;;;11.23;68.59;98462.47;1087458;54;20026;-80
2022/03/30 04:50:35;;;;;;;30.00;21.92;;;;;;;11.27;68.58;98462.91;1087190;46;20050;-80
2022/03/30 04:51:39;;;;;;;31.38;23.05;;;;;;;11.20;69.04;98457.47;1086807;54;20026;-79
2022/03/30 04:52:51;;;;;;;27.50;22.90;;;;;;;11.05;69.62;98461.00;1088408;54;20014;-80
2022/03/30 04:53:52;;;;;;;31.70;22.55;;;;;;;11.04;69.42;98456.69;1088202;54;20038;-80
2022/03/30 04:55:02;;;;;;;31.67;22.98;;;;;;;10.96;70.20;98462.09;1088352;54;20021;-81
2022/03/30 04:56:07;;;;;;;30.92;23.52;;;;;;;10.95;69.82;98463.16;1090280;46;20039;-80
2022/03/30 04:57:17;;;;;;;30.08;23.50;;;;;;;10.91;70.71;98464.53;1088313;54;20035;-80